AirNav   Air Wisconsin pilot careers
 
 641 users online  

09AK West Beaver Airport
Big Lake, Alaska, USA

GOING TO BIG LAKE?


FAA INFORMATION EFFECTIVE 12 SEPTEMBER 2019

Location

FAA Identifier: 09AK
Lat/Long: 61-35-21.7000N 149-50-50.4000W
61-35.361667N 149-50.840000W
61.5893611,-149.8473333
(estimated)
Elevation: 228 ft. / 69 m (estimated)
From city: 4 miles N of BIG LAKE, AK
Time zone: UTC -8 (UTC -9 during Standard Time)
Zip code: 99623

Airport Operations

Airport use: Private use. Permission required prior to landing
Activation date: 01/2007
Control tower: no
ARTCC: ANCHORAGE CENTER
FSS: KENAI FLIGHT SERVICE STATION [907-283-8469]
Attendance: UNATNDD
Segmented circle: no

Airport Communications

CTAF: 122.8
WX AWOS-3P at IYS (9 nm E): 135.25 (907-373-3801)
WX AWOS-3P at BCV (14 nm SE): 135.55 (907-688-0826)

Nearby radio navigation aids

VOR radial/distance  VOR name  Freq  Var
BGQr052/3.6BIG LAKE VORTAC112.5019E
TEDr349/25.5ANCHORAGE VOR/DME113.1518E

 
NDB name  Hdg/Dist  Freq  Var  ID
CAMPBELL LAKE357/25.833816ECMQ -.-. -- --.-

Airport Services

Runway Information

Runway 6/24

Dimensions: 1300 x 60 ft. / 396 x 18 m
Surface: turf
RUNWAY 6  RUNWAY 24
Traffic pattern: leftright

Airport Ownership and Management from official FAA records

Ownership: Privately-owned
Owner: KEN THORALL
1010 N. ROGERS RD.
BIG LAKE, AK 99762
Phone 907-232-5711
Manager: KEN THORALL
1113 N. ROGERS RD.
WASILLA, AK 99654
Phone 907-232-5711

Additional Remarks

RY 06/24 SOFT AFTER HVY RAIN & DURING SPRING THAW.

Instrument Procedures

There are no published instrument procedures at 09AK.

Some nearby airports with instrument procedures:

PAGQ - Big Lake Airport (3 nm S)
PAWS - Wasilla Airport (9 nm E)
PAUO - Willow Airport (11 nm NW)
PAFR - Bryant Army Airfield Heliport (20 nm S)
PAED - Elmendorf Air Force Base (20 nm S)
 
Loc | Ops | Rwys | IFR | FBO | Links
Com | Nav | Svcs | Stats | Notes

Crowley
 
Area around 09AK (West Beaver Airport)
 
Road maps at: MapQuest Bing Google
 
Aerial photo
No photo
 
Sectional chart

 
Airport distance calculator
Flying to West Beaver Airport? Find the distance to fly.

From to 09AK

Sunrise and sunset
Times for 20-Sep-2019
 Local
(UTC-8)
 Zulu
(UTC)
Morning civil twilight06:5614:56
Sunrise07:4015:40
Sunset20:0604:06
Evening civil twilight20:5004:50

Current date and time
Zulu (UTC)  21-Sep-2019 04:00:07
Local (UTC-8)  20-Sep-2019 20:00:07
 
METAR
PABV 
14nm SE 
210347Z AUTO 13004KT 10SM -RA BKN018 OVC034 09/07 A2905 RMK AO2 P0002
PAFR 
20nm S 
210338Z AUTO 13004KT 2 1/2SM -RA BR FEW007 BKN019 OVC025 09/08 A2902 RMK AO2 VIS 1 1/4V2 1/2 BKN V OVC SLP833 $
PAED 
20nm S 
210257Z 00000KT 6SM -RA SCT007 BKN014 BKN026 OVC032 10/08 A2904 RMK DZE0156RAB0156 CIG 007V014 SLP830 P0003 60006 T00960084 57003 $
PAAQ 
22nm E 
210353Z AUTO 13005KT 9SM -RA OVC013 07/07 A2904 RMK AO2 SLP836 P0005 T00720067 TSNO
PAMR 
22nm S 
210353Z 00000KT 10SM -RA SCT016 BKN022 OVC028 09/08 A2904 RMK AO2 SLP836 P0003 T00940078
TAF
PAED 
20nm S 
210120Z 2101/2201 01009KT 8000 -RA SCT007 BKN015 OVC050 650509 QNH2900INS TEMPO 2101/2104 BKN007 BKN015 OVC050 BECMG 2104/2105 35009KT 8000 -RA BKN025 OVC045 650509 QNH2904INS TX10/2101Z TN06/2113Z
PAAQ 
22nm E 
210211Z 2102/2124 VRB04KT 4SM -RA BR OVC006 FM211800 VRB03KT P6SM -RA FEW009 BKN015
NOTAMs
Click for the latest NOTAMs
NOTAMs are issued by the DoD/FAA and will open in a separate window not controlled by AirNav.

 

 
 

Would you like to see your business listed on this page?

 If your business provides an interesting product or service to pilots, flight crews, aircraft, or users of the West Beaver Airport, you should consider listing it here.  To start the listing process, click on the button below
 
Add a business
 

Other Pages about West Beaver Airport

Update a link
 
Copyright © AirNav, LLC. All rights reserved. Privacy Policy  Contact